Time;durP1;ratioP1;P1;durP2;ratioP2;P2;SDS_P1;SDS_P2;PMS_P1;PMS_P2;Temp;Humidity;BMP_temperature;BMP_pressure;BME280_temperature;BME280_humidity;BME280_pressure;Samples;Min_cycle;Max_cycle;Signal;HPM_P1;HPM_P2
2022/09/02 00:01:46;;;;;;;7.15;0.98;;;14.40;99.90;;;;;;6097812;23;20398;-94
2022/09/02 00:04:18;;;;;;;2.42;0.80;;;14.40;99.90;;;;;;6097058;23;20029;-93
2022/09/02 00:06:45;;;;;;;5.35;1.02;;;14.40;99.90;;;;;;6096878;23;20565;-94
2022/09/02 00:09:14;;;;;;;4.78;0.90;;;14.40;99.90;;;;;;6098019;23;20018;-94
2022/09/02 00:11:41;;;;;;;4.03;1.10;;;14.30;99.90;;;;;;6097536;23;20018;-93
2022/09/02 00:14:12;;;;;;;4.30;1.00;;;14.30;99.90;;;;;;6097570;23;20105;-93
2022/09/02 00:16:40;;;;;;;6.07;1.42;;;14.30;99.90;;;;;;6097922;23;20037;-94
2022/09/02 00:19:06;;;;;;;6.70;1.90;;;14.20;99.90;;;;;;6097736;23;20029;-95
2022/09/02 00:21:34;;;;;;;5.60;2.15;;;14.20;99.90;;;;;;6097969;23;20022;-95
2022/09/02 00:24:01;;;;;;;5.82;2.47;;;14.10;99.90;;;;;;6098962;23;20340;-95
2022/09/02 00:26:27;;;;;;;7.45;2.22;;;14.10;99.90;;;;;;6098096;23;20129;-93
2022/09/02 00:28:53;;;;;;;3.83;2.15;;;14.10;99.90;;;;;;6098141;23;20049;-95
2022/09/02 00:31:19;;;;;;;6.47;2.47;;;14.10;99.90;;;;;;6097515;23;20026;-93
2022/09/02 00:33:45;;;;;;;5.00;2.40;;;14.00;99.90;;;;;;6097811;23;20049;-93
2022/09/02 00:36:12;;;;;;;5.47;2.15;;;14.00;99.90;;;;;;6098737;23;20020;-94
2022/09/02 00:38:38;;;;;;;5.10;2.03;;;13.90;99.90;;;;;;6099026;23;20020;-94
2022/09/02 00:41:07;;;;;;;4.57;2.08;;;13.90;99.90;;;;;;6097105;23;20022;-94
2022/09/02 00:43:40;;;;;;;4.53;1.77;;;13.90;99.90;;;;;;6096780;23;20025;-94
2022/09/02 00:46:06;;;;;;;5.90;1.60;;;13.80;99.90;;;;;;6097854;23;20065;-94
2022/09/02 00:48:33;;;;;;;6.28;1.65;;;13.80;99.90;;;;;;6097966;23;20057;-94
2022/09/02 00:50:59;;;;;;;6.43;1.50;;;13.70;99.90;;;;;;6100096;23;20258;-93
2022/09/02 00:53:25;;;;;;;5.30;1.50;;;13.70;99.90;;;;;;6099191;23;20077;-93
2022/09/02 00:55:51;;;;;;;6.22;1.70;;;13.70;99.90;;;;;;6099663;23;20014;-92
2022/09/02 00:58:24;;;;;;;6.63;1.98;;;13.70;99.90;;;;;;6098121;23;20435;-94
2022/09/02 01:00:51;;;;;;;;;;;13.60;99.90;;;;;;6098514;23;20018;-93
2022/09/02 01:03:20;;;;;;;4.82;2.15;;;13.60;99.90;;;;;;6097014;23;20297;-95
2022/09/02 01:05:48;;;;;;;11.07;2.13;;;13.60;99.90;;;;;;6097628;23;20022;-93
2022/09/02 01:08:19;;;;;;;9.55;2.38;;;13.50;99.90;;;;;;6097050;23;20022;-93
2022/09/02 01:10:46;;;;;;;7.32;1.80;;;13.50;99.90;;;;;;6097833;23;20014;-93
2022/09/02 01:13:16;;;;;;;4.28;2.00;;;13.50;99.90;;;;;;6096787;23;20049;-93
2022/09/02 01:15:46;;;;;;;5.70;2.13;;;13.40;99.90;;;;;;6096543;23;20105;-93
2022/09/02 01:18:17;;;;;;;4.70;2.08;;;13.40;99.90;;;;;;6097988;23;20010;-93
2022/09/02 01:20:43;;;;;;;4.07;1.90;;;13.40;99.90;;;;;;6099032;23;20033;-93
2022/09/02 01:23:10;;;;;;;5.45;2.13;;;13.40;99.90;;;;;;6096377;23;20343;-93
2022/09/02 01:25:36;;;;;;;8.75;2.13;;;13.30;99.90;;;;;;6097117;23;20029;-94
2022/09/02 01:28:08;;;;;;;9.93;1.90;;;13.30;99.90;;;;;;6097666;23;20014;-93
2022/09/02 01:30:36;;;;;;;3.60;1.65;;;13.30;99.90;;;;;;6096941;23;20025;-92
2022/09/02 01:33:02;;;;;;;4.95;1.60;;;13.30;99.90;;;;;;6097153;23;20045;-93
2022/09/02 01:35:28;;;;;;;4.35;2.13;;;13.20;99.90;;;;;;6097256;23;20022;-93
2022/09/02 01:37:56;;;;;;;5.13;2.20;;;13.20;99.90;;;;;;6097144;23;20084;-94
2022/09/02 01:40:24;;;;;;;3.05;1.80;;;13.10;99.90;;;;;;6096090;23;20053;-94
2022/09/02 01:42:56;;;;;;;4.72;1.85;;;13.10;99.90;;;;;;6096614;23;20519;-93
2022/09/02 01:45:22;;;;;;;6.50;1.90;;;13.10;99.90;;;;;;6095599;23;20096;-93
2022/09/02 01:47:48;;;;;;;3.40;1.42;;;13.10;99.90;;;;;;6098527;23;20407;-93
2022/09/02 01:50:14;;;;;;;4.53;1.85;;;13.00;99.90;;;;;;6099614;23;20443;-93
2022/09/02 01:52:40;;;;;;;6.28;1.60;;;13.00;99.90;;;;;;6099126;23;20455;-94
2022/09/02 01:55:06;;;;;;;4.97;1.73;;;13.00;99.90;;;;;;6096966;23;20018;-93
2022/09/02 01:57:31;;;;;;;5.70;1.50;;;12.90;99.90;;;;;;6096258;23;20093;-93
2022/09/02 02:00:00;;;;;;;11.40;1.45;;;12.90;99.90;;;;;;6097946;23;20018;-93
2022/09/02 02:02:26;;;;;;;2.33;1.23;;;12.80;99.90;;;;;;6096048;23;20064;-93
2022/09/02 02:04:53;;;;;;;2.95;1.20;;;12.80;99.90;;;;;;6073432;23;20029;-93
2022/09/02 02:07:21;;;;;;;7.78;1.45;;;12.80;99.90;;;;;;6072707;23;20105;-94
2022/09/02 02:09:47;;;;;;;4.78;1.30;;;12.80;99.90;;;;;;6073933;23;20080;-94
2022/09/02 02:12:14;;;;;;;3.15;1.30;;;12.70;99.90;;;;;;6073674;23;20029;-93
2022/09/02 02:14:40;;;;;;;3.10;1.05;;;12.70;99.90;;;;;;6073260;23;20057;-94
2022/09/02 02:17:06;;;;;;;2.85;1.30;;;12.70;99.90;;;;;;6072847;23;20502;-94
2022/09/02 02:19:32;;;;;;;2.55;1.13;;;12.60;99.90;;;;;;6072268;23;20026;-94
2022/09/02 02:21:58;;;;;;;1.83;1.10;;;12.60;99.90;;;;;;6073106;23;20050;-93
2022/09/02 02:24:24;;;;;;;3.75;1.23;;;12.50;99.90;;;;;;6072004;23;20025;-93
2022/09/02 02:26:50;;;;;;;5.25;0.90;;;12.50;99.90;;;;;;6072809;23;20033;-93
2022/09/02 02:29:16;;;;;;;5.50;1.25;;;12.50;99.90;;;;;;6074372;23;20029;-94
2022/09/02 02:31:43;;;;;;;2.88;1.15;;;12.50;99.90;;;;;;6073491;23;20053;-94
2022/09/02 02:34:09;;;;;;;3.50;1.20;;;12.50;99.90;;;;;;6072390;23;20022;-93
2022/09/02 02:36:36;;;;;;;4.13;1.20;;;12.40;99.90;;;;;;6072107;23;20022;-93
2022/09/02 02:39:03;;;;;;;3.30;1.10;;;12.40;99.90;;;;;;6073123;23;20010;-93
2022/09/02 02:41:30;;;;;;;2.90;1.27;;;12.40;99.90;;;;;;6071935;23;20406;-95
2022/09/02 02:43:56;;;;;;;1.52;1.10;;;12.30;99.90;;;;;;6072668;23;20025;-94
2022/09/02 02:46:21;;;;;;;5.88;1.20;;;12.30;99.90;;;;;;6073704;23;20317;-94
2022/09/02 02:48:47;;;;;;;2.10;1.02;;;12.30;99.90;;;;;;6073084;23;20025;-94
2022/09/02 02:51:13;;;;;;;2.95;1.13;;;12.30;99.90;;;;;;6072663;23;20029;-93
2022/09/02 02:53:40;;;;;;;3.22;1.38;;;12.20;99.90;;;;;;6072930;23;20020;-94
2022/09/02 02:56:07;;;;;;;3.17;1.40;;;12.20;99.90;;;;;;6074769;23;20049;-94
2022/09/02 02:58:33;;;;;;;6.70;1.20;;;12.20;99.90;;;;;;6073319;23;20022;-93
2022/09/02 03:00:59;;;;;;;3.17;1.20;;;12.20;99.90;;;;;;6072640;23;20469;-94
2022/09/02 03:03:26;;;;;;;2.85;1.30;;;12.20;99.90;;;;;;6078228;23;20014;-94
2022/09/02 03:05:52;;;;;;;3.17;1.17;;;12.10;99.90;;;;;;6095796;23;20106;-94
2022/09/02 03:08:19;;;;;;;1.88;1.20;;;12.10;99.90;;;;;;6096113;23;20041;-94
2022/09/02 03:10:48;;;;;;;4.32;1.30;;;12.10;99.90;;;;;;6097219;23;20022;-94
2022/09/02 03:13:14;;;;;;;2.88;1.40;;;12.00;99.90;;;;;;6097313;23;20014;-94
2022/09/02 03:15:41;;;;;;;2.72;1.50;;;12.00;99.90;;;;;;6095586;23;20021;-93
2022/09/02 03:18:08;;;;;;;3.33;1.33;;;12.00;99.90;;;;;;6096714;23;20025;-93
2022/09/02 03:20:34;;;;;;;4.72;1.40;;;11.90;99.90;;;;;;6096718;23;20030;-94
2022/09/02 03:23:00;;;;;;;2.03;1.10;;;11.90;99.90;;;;;;6096208;23;20021;-94
2022/09/02 03:25:28;;;;;;;3.25;1.50;;;11.90;99.90;;;;;;6096176;23;20029;-94
2022/09/02 03:27:54;;;;;;;3.97;1.58;;;11.90;99.90;;;;;;6097473;23;20022;-95
2022/09/02 03:30:24;;;;;;;2.15;1.30;;;11.80;99.90;;;;;;6096155;23;20101;-94
2022/09/02 03:32:51;;;;;;;3.67;1.58;;;11.80;99.90;;;;;;6096170;23;20017;-93
2022/09/02 03:35:18;;;;;;;2.92;1.50;;;11.70;99.90;;;;;;6096468;23;20467;-94
2022/09/02 03:37:44;;;;;;;4.82;1.30;;;11.90;99.90;;;;;;6095643;23;20022;-94
2022/09/02 03:40:14;;;;;;;5.20;1.48;;;11.60;99.90;;;;;;6097566;23;20018;-94
2022/09/02 03:42:40;;;;;;;4.95;1.48;;;11.60;99.90;;;;;;6098833;23;20113;-94
2022/09/02 03:45:07;;;;;;;6.82;1.80;;;11.60;99.90;;;;;;6098685;23;20029;-94
2022/09/02 03:47:34;;;;;;;2.78;1.58;;;11.60;99.90;;;;;;6095577;23;20041;-94
2022/09/02 03:50:01;;;;;;;4.32;1.38;;;11.60;99.90;;;;;;6095621;23;20076;-94
2022/09/02 03:52:28;;;;;;;2.00;1.33;;;11.50;99.90;;;;;;6095554;23;20126;-93
2022/09/02 03:54:53;;;;;;;3.47;1.50;;;11.50;99.90;;;;;;6097943;23;20022;-94
2022/09/02 03:57:21;;;;;;;3.15;1.40;;;11.50;99.90;;;;;;6096294;23;20129;-94
2022/09/02 03:59:47;;;;;;;3.33;1.48;;;11.50;99.90;;;;;;6096551;23;20021;-94
2022/09/02 04:02:13;;;;;;;5.40;1.60;;;11.40;99.90;;;;;;6095992;23;20339;-94
2022/09/02 04:04:39;;;;;;;2.72;1.45;;;11.40;99.90;;;;;;6097765;23;20044;-93
2022/09/02 04:07:05;;;;;;;4.88;1.55;;;11.40;99.90;;;;;;6095765;23;20029;-95
2022/09/02 04:09:31;;;;;;;3.28;1.52;;;11.30;99.90;;;;;;6096986;23;20010;-94
2022/09/02 04:11:56;;;;;;;6.00;1.75;;;11.30;99.90;;;;;;6095880;23;20026;-93
2022/09/02 04:14:22;;;;;;;2.78;1.10;;;11.30;99.90;;;;;;6096872;23;20316;-93
2022/09/02 04:16:48;;;;;;;4.03;1.30;;;11.30;99.90;;;;;;6098141;23;20022;-94
2022/09/02 04:19:13;;;;;;;7.53;1.85;;;11.20;99.90;;;;;;6097059;23;20069;-94
2022/09/02 04:21:40;;;;;;;2.83;1.40;;;11.30;99.90;;;;;;6098814;23;20333;-94
2022/09/02 04:24:08;;;;;;;4.00;1.60;;;11.20;99.90;;;;;;6095475;23;20466;-95
2022/09/02 04:26:35;;;;;;;3.58;1.55;;;11.20;99.90;;;;;;6098165;23;20101;-95
2022/09/02 04:29:01;;;;;;;4.00;1.75;;;11.20;99.90;;;;;;6097118;23;20022;-94
2022/09/02 04:31:30;;;;;;;5.40;1.50;;;11.10;99.90;;;;;;6096375;23;20061;-94
2022/09/02 04:33:57;;;;;;;6.17;1.63;;;11.10;99.90;;;;;;6097648;23;20017;-94
2022/09/02 04:36:23;;;;;;;3.05;1.58;;;11.10;99.90;;;;;;6096960;23;20463;-95
2022/09/02 04:38:49;;;;;;;5.18;1.50;;;11.10;99.90;;;;;;6098593;23;20112;-95
2022/09/02 04:41:18;;;;;;;2.88;1.80;;;11.10;99.90;;;;;;6097147;23;20022;-94
2022/09/02 04:43:44;;;;;;;5.05;1.38;;;11.10;99.90;;;;;;6097752;23;20084;-95
2022/09/02 04:46:12;;;;;;;7.00;1.92;;;11.10;99.90;;;;;;6097366;23;20028;-94
2022/09/02 04:48:39;;;;;;;2.92;1.48;;;11.10;99.90;;;;;;6099330;23;20447;-94
2022/09/02 04:51:07;;;;;;;5.28;1.77;;;11.10;99.90;;;;;;6099239;23;20443;-94
2022/09/02 04:53:33;;;;;;;5.05;1.77;;;10.90;99.90;;;;;;6099984;23;20020;-93
2022/09/02 04:56:01;;;;;;;4.93;1.58;;;11.10;99.90;;;;;;6099206;23;20025;-94
2022/09/02 04:58:27;;;;;;;4.70;1.33;;;11.00;99.90;;;;;;6095832;23;20024;-95
2022/09/02 05:00:53;;;;;;;2.85;1.35;;;11.00;99.90;;;;;;6101593;23;20025;-93
2022/09/02 05:03:18;;;;;;;3.60;1.45;;;10.90;99.90;;;;;;6096176;23;20069;-94
2022/09/02 05:05:46;;;;;;;3.47;1.60;;;11.00;99.90;;;;;;6097048;23;20026;-94
2022/09/02 05:08:12;;;;;;;2.60;1.35;;;11.00;99.90;;;;;;6098411;23;20014;-94
2022/09/02 05:10:39;;;;;;;2.25;1.33;;;11.00;99.90;;;;;;6097121;23;20447;-95
2022/09/02 05:13:05;;;;;;;4.70;1.70;;;11.00;99.90;;;;;;6096389;23;20483;-94
2022/09/02 05:15:31;;;;;;;3.58;1.70;;;11.10;99.90;;;;;;6095421;23;20116;-94
2022/09/02 05:17:56;;;;;;;3.92;1.35;;;11.10;99.90;;;;;;6097403;23;20018;-94
2022/09/02 05:20:23;;;;;;;2.67;1.50;;;11.10;99.90;;;;;;6099605;23;20485;-95
2022/09/02 05:22:50;;;;;;;3.17;1.70;;;11.20;99.90;;;;;;6097451;23;20017;-93
2022/09/02 05:25:15;;;;;;;5.75;1.40;;;11.20;99.90;;;;;;6096737;23;20025;-94
2022/09/02 05:27:41;;;;;;;3.15;1.30;;;11.30;99.90;;;;;;6096917;23;20076;-94
2022/09/02 05:30:07;;;;;;;2.63;1.60;;;11.30;99.90;;;;;;6097008;23;20046;-94
2022/09/02 05:32:33;;;;;;;4.15;1.60;;;11.40;99.90;;;;;;6097707;23;20041;-93
2022/09/02 05:34:59;;;;;;;7.22;1.50;;;11.40;99.90;;;;;;6100270;23;20393;-93
2022/09/02 05:37:25;;;;;;;4.78;1.80;;;11.40;99.90;;;;;;6097372;23;20093;-94
2022/09/02 05:39:51;;;;;;;4.00;1.50;;;11.50;99.90;;;;;;6099206;23;20084;-93
2022/09/02 05:42:19;;;;;;;6.15;1.60;;;11.50;99.90;;;;;;6097219;23;20504;-93
2022/09/02 05:44:45;;;;;;;3.35;1.60;;;11.60;99.90;;;;;;6097113;23;20018;-94
2022/09/02 05:47:11;;;;;;;5.22;1.45;;;11.60;99.90;;;;;;6099710;23;20033;-94
2022/09/02 05:49:37;;;;;;;2.05;1.33;;;11.70;99.90;;;;;;6096884;23;20459;-94
2022/09/02 05:52:04;;;;;;;14.25;2.05;;;11.70;99.90;;;;;;6096571;23;20014;-94
2022/09/02 05:54:32;;;;;;;3.35;1.63;;;11.80;99.90;;;;;;6097219;23;20067;-94
2022/09/02 05:57:03;;;;;;;3.83;1.33;;;11.90;99.90;;;;;;6095361;23;20020;-93
2022/09/02 05:59:35;;;;;;;3.35;1.40;;;11.90;99.90;;;;;;6098369;23;20041;-93
2022/09/02 06:02:01;;;;;;;4.03;2.33;;;12.00;99.90;;;;;;6097891;23;20022;-94
2022/09/02 06:04:27;;;;;;;5.97;1.80;;;12.10;99.90;;;;;;6098954;23;20022;-94
2022/09/02 06:06:53;;;;;;;2.00;1.30;;;12.10;99.90;;;;;;6099272;23;20022;-94
2022/09/02 06:09:22;;;;;;;4.40;1.58;;;12.30;99.90;;;;;;6097270;23;20033;-94
2022/09/02 06:11:48;;;;;;;2.45;1.38;;;12.30;99.90;;;;;;6096246;23;20390;-94
2022/09/02 06:14:16;;;;;;;2.63;1.60;;;12.40;99.90;;;;;;6098607;23;20018;-93
2022/09/02 06:16:42;;;;;;;5.45;1.42;;;12.50;99.90;;;;;;6096195;23;20029;-94
2022/09/02 06:19:08;;;;;;;5.95;1.55;;;12.60;99.90;;;;;;6096574;23;20025;-95
2022/09/02 06:21:36;;;;;;;2.58;1.30;;;12.60;99.90;;;;;;6097217;23;20026;-94
2022/09/02 06:24:05;;;;;;;2.85;1.30;;;12.70;99.90;;;;;;6097665;23;20018;-95
2022/09/02 06:26:31;;;;;;;2.88;1.35;;;12.80;99.90;;;;;;6097097;23;20379;-94
2022/09/02 06:28:57;;;;;;;3.05;1.70;;;12.90;99.90;;;;;;6096737;23;20021;-95
2022/09/02 06:31:23;;;;;;;6.40;1.60;;;13.00;99.90;;;;;;6097598;23;20018;-95
2022/09/02 06:33:53;;;;;;;29.40;3.53;;;13.10;99.90;;;;;;6097667;23;20022;-94
2022/09/02 06:36:21;;;;;;;4.43;1.63;;;13.10;99.90;;;;;;6096572;23;20018;-94
2022/09/02 06:38:50;;;;;;;33.70;3.67;;;13.20;99.90;;;;;;6096523;23;20348;-93
2022/09/02 06:41:22;;;;;;;48.28;5.50;;;13.30;99.90;;;;;;6096786;23;20106;-92
2022/09/02 06:43:48;;;;;;;8.32;1.80;;;13.40;99.90;;;;;;6095292;23;20096;-92
2022/09/02 06:46:17;;;;;;;6.22;1.50;;;13.50;99.90;;;;;;6096666;23;20073;-93
2022/09/02 06:48:43;;;;;;;4.50;1.60;;;13.50;99.90;;;;;;6096474;23;20021;-92
2022/09/02 06:51:15;;;;;;;6.57;1.67;;;13.60;99.90;;;;;;6097289;23;20105;-93
2022/09/02 06:53:41;;;;;;;3.15;1.02;;;13.70;99.90;;;;;;6096858;23;20028;-93
2022/09/02 06:56:07;;;;;;;10.13;2.00;;;13.80;99.90;;;;;;6101261;23;20018;-94
2022/09/02 06:58:32;;;;;;;3.28;1.40;;;13.90;99.90;;;;;;6098985;23;20479;-93
2022/09/02 07:00:58;;;;;;;66.07;7.45;;;13.90;99.90;;;;;;6098713;23;20022;-94
2022/09/02 07:06:16;;;;;;;9.48;1.35;;;14.10;99.90;;;;;;6121709;23;20026;-96
2022/09/02 07:08:43;;;;;;;5.72;1.50;;;14.20;99.90;;;;;;6096405;23;20014;-94
2022/09/02 07:11:19;;;;;;;7.00;1.60;;;14.30;99.90;;;;;;6098831;23;20050;-95
2022/09/02 07:13:45;;;;;;;4.80;1.58;;;14.40;99.90;;;;;;6096889;23;20014;-94
2022/09/02 07:16:11;;;;;;;6.90;1.30;;;14.50;99.90;;;;;;6096527;23;20022;-95
2022/09/02 07:18:37;;;;;;;6.90;1.58;;;14.60;99.90;;;;;;6097063;23;20462;-93
2022/09/02 07:21:03;;;;;;;4.45;1.42;;;14.70;99.90;;;;;;6097059;23;20026;-95
2022/09/02 07:23:29;;;;;;;10.88;1.55;;;14.90;99.90;;;;;;6098659;23;20444;-94
2022/09/02 07:25:55;;;;;;;22.90;3.20;;;15.00;99.90;;;;;;6097553;23;20054;-94
2022/09/02 07:28:22;;;;;;;8.25;1.60;;;15.10;99.90;;;;;;6097825;23;20078;-94
2022/09/02 07:30:47;;;;;;;104.20;8.60;;;15.20;99.90;;;;;;6097582;23;20018;-94
2022/09/02 07:33:14;;;;;;;10.00;1.45;;;15.40;99.90;;;;;;6095266;23;20065;-95
2022/09/02 07:35:41;;;;;;;2.97;1.20;;;15.50;99.90;;;;;;6096335;23;20072;-94
2022/09/02 07:38:09;;;;;;;7.28;1.40;;;15.60;99.90;;;;;;6094818;23;20018;-94
2022/09/02 07:40:35;;;;;;;5.78;1.30;;;15.70;99.90;;;;;;6095347;23;20109;-94
2022/09/02 07:43:03;;;;;;;7.15;1.27;;;15.90;99.90;;;;;;6095443;23;20340;-95
2022/09/02 07:45:30;;;;;;;6.45;1.40;;;15.90;99.90;;;;;;6094824;23;20029;-94
2022/09/02 07:47:56;;;;;;;5.07;1.00;;;16.20;99.90;;;;;;6095908;23;20466;-95
2022/09/02 07:50:25;;;;;;;3.47;1.20;;;16.30;99.90;;;;;;6096185;23;20871;-94
2022/09/02 07:52:54;;;;;;;2.08;1.20;;;16.50;99.90;;;;;;6100101;23;20056;-94
2022/09/02 07:55:21;;;;;;;3.40;1.13;;;16.60;99.90;;;;;;6099815;23;20025;-94
2022/09/02 07:57:47;;;;;;;2.85;1.20;;;16.70;99.90;;;;;;6097702;23;20021;-94
2022/09/02 08:00:15;;;;;;;5.65;1.40;;;16.80;99.90;;;;;;6108945;23;20092;-93
2022/09/02 08:02:41;;;;;;;2.90;1.00;;;16.90;99.90;;;;;;6098096;23;20093;-94
2022/09/02 08:05:07;;;;;;;9.65;1.10;;;17.00;99.90;;;;;;6073794;23;20026;-95
2022/09/02 08:07:33;;;;;;;4.10;1.15;;;17.10;99.90;;;;;;6073748;23;20483;-94
2022/09/02 08:09:59;;;;;;;4.65;0.95;;;17.20;99.90;;;;;;6075861;23;20026;-94
2022/09/02 08:12:26;;;;;;;5.75;0.85;;;17.30;99.90;;;;;;6072327;23;20496;-94
2022/09/02 08:14:52;;;;;;;3.15;1.00;;;17.40;99.90;;;;;;6075954;23;20002;-95
2022/09/02 08:17:19;;;;;;;6.28;1.25;;;17.50;99.90;;;;;;6074267;23;20025;-95
2022/09/02 08:19:45;;;;;;;6.10;1.00;;;17.60;99.90;;;;;;6076163;23;20017;-94
2022/09/02 08:22:10;;;;;;;8.40;1.10;;;17.70;99.90;;;;;;6074588;23;20026;-94
2022/09/02 08:24:36;;;;;;;8.63;1.30;;;17.80;99.90;;;;;;6073281;23;20014;-94
2022/09/02 08:27:02;;;;;;;2.28;0.90;;;17.90;99.90;;;;;;6075476;23;20061;-93
2022/09/02 08:29:28;;;;;;;4.50;1.23;;;18.00;99.90;;;;;;6074363;23;20025;-94
2022/09/02 08:31:54;;;;;;;7.68;1.40;;;18.10;99.90;;;;;;6073567;23;20108;-94
2022/09/02 08:34:20;;;;;;;13.20;1.33;;;18.20;99.90;;;;;;6073545;23;20053;-94
2022/09/02 08:36:45;;;;;;;14.40;1.13;;;18.30;99.90;;;;;;6073591;23;20021;-94
2022/09/02 08:39:11;;;;;;;6.10;1.35;;;18.40;99.90;;;;;;6073810;23;20115;-94
2022/09/02 08:41:52;;;;;;;5.80;1.40;;;18.40;99.90;;;;;;6073406;23;20021;-94
2022/09/02 08:44:21;;;;;;;3.40;1.25;;;18.60;99.90;;;;;;6074013;23;20033;-94
2022/09/02 08:46:49;;;;;;;3.75;1.10;;;18.70;99.90;;;;;;6073851;23;20021;-94
2022/09/02 08:49:27;;;;;;;3.72;1.00;;;18.80;99.90;;;;;;6074080;23;20020;-94
2022/09/02 08:51:56;;;;;;;2.85;1.13;;;18.90;99.90;;;;;;6075753;23;20022;-94
2022/09/02 08:54:27;;;;;;;5.70;1.27;;;19.00;99.90;;;;;;6072559;23;20018;-93
2022/09/02 08:56:54;;;;;;;5.85;1.13;;;19.20;99.90;;;;;;6074157;23;20022;-93
2022/09/02 08:59:22;;;;;;;5.55;0.90;;;19.20;99.90;;;;;;6073118;23;20016;-93
2022/09/02 09:01:57;;;;;;;3.63;1.20;;;19.30;99.90;;;;;;6072376;23;20399;-93
2022/09/02 09:04:56;;;;;;;5.63;1.20;;;19.40;99.90;;;;;;6091590;23;20080;-93
2022/09/02 09:07:40;;;;;;;6.28;1.08;;;19.50;99.90;;;;;;6096473;23;20029;-94
2022/09/02 09:10:27;;;;;;;5.78;1.30;;;19.60;99.90;;;;;;6097571;23;20414;-92
2022/09/02 09:13:05;;;;;;;5.43;1.05;;;19.70;99.90;;;;;;6097765;23;20404;-92
2022/09/02 09:15:41;;;;;;;3.95;0.93;;;19.80;99.90;;;;;;6096642;23;20021;-93
2022/09/02 09:18:14;;;;;;;1.58;0.80;;;19.80;99.90;;;;;;6098777;23;20017;-93
2022/09/02 09:20:42;;;;;;;6.07;1.17;;;20.00;99.90;;;;;;6099846;23;20404;-93
2022/09/02 09:23:29;;;;;;;51.47;4.57;;;20.10;99.90;;;;;;6098679;23;20057;-93
2022/09/02 09:26:05;;;;;;;50.83;5.35;;;20.10;99.90;;;;;;6098410;23;20165;-94
2022/09/02 09:28:36;;;;;;;40.78;4.93;;;20.20;99.90;;;;;;6096670;23;20101;-94
2022/09/02 09:31:01;;;;;;;6.18;0.98;;;20.20;99.90;;;;;;6097645;23;20029;-93
2022/09/02 09:33:27;;;;;;;135.43;15.07;;;20.20;99.90;;;;;;6098214;23;20017;-92
2022/09/02 09:35:55;;;;;;;72.78;7.43;;;20.30;99.90;;;;;;6096315;23;20022;-93
2022/09/02 09:38:33;;;;;;;39.13;4.43;;;20.40;99.90;;;;;;6096379;23;20101;-92
2022/09/02 09:41:19;;;;;;;18.40;2.50;;;20.50;99.90;;;;;;6097547;23;20022;-92
2022/09/02 09:43:44;;;;;;;7.50;0.80;;;20.70;99.90;;;;;;6095666;23;20467;-92
2022/09/02 09:46:26;;;;;;;8.75;0.60;;;20.70;99.90;;;;;;6096775;23;20018;-93
2022/09/02 09:48:52;;;;;;;6.63;1.05;;;20.90;99.90;;;;;;6097163;23;20026;-92
2022/09/02 09:51:18;;;;;;;4.72;0.90;;;21.00;99.90;;;;;;6099850;23;20017;-93
2022/09/02 09:53:45;;;;;;;9.10;1.30;;;21.00;99.90;;;;;;6097513;23;20101;-93
2022/09/02 09:56:14;;;;;;;5.05;0.77;;;21.10;99.90;;;;;;6096553;23;20092;-94
2022/09/02 09:58:40;;;;;;;11.98;1.13;;;21.20;99.90;;;;;;6097246;23;20022;-96
2022/09/02 10:01:20;;;;;;;4.15;0.80;;;21.30;99.90;;;;;;6096546;23;20022;-94
2022/09/02 10:03:47;;;;;;;6.80;1.35;;;21.40;99.90;;;;;;6096605;23;20022;-94
2022/09/02 10:06:18;;;;;;;4.88;1.02;;;21.40;99.90;;;;;;6098453;23;20029;-93
2022/09/02 10:08:50;;;;;;;7.00;1.30;;;21.40;99.90;;;;;;6096130;23;20030;-95
2022/09/02 10:11:26;;;;;;;5.70;0.95;;;21.50;99.90;;;;;;6096932;23;20113;-94
2022/09/02 10:14:01;;;;;;;7.90;1.10;;;21.50;99.90;;;;;;6098275;23;20024;-93
2022/09/02 10:16:58;;;;;;;6.47;0.93;;;21.60;99.90;;;;;;6097859;23;20021;-95
2022/09/02 10:19:54;;;;;;;5.55;1.08;;;21.70;99.90;;;;;;5147189;27;1265727;-84
2022/09/02 10:22:38;;;;;;;5.57;1.20;;;21.80;99.90;;;;;;5148359;27;20059;-84
2022/09/02 10:25:06;;;;;;;13.10;1.23;;;21.80;99.90;;;;;;5130854;27;20101;-83
2022/09/02 10:27:53;;;;;;;8.48;1.52;;;21.90;99.90;;;;;;5130194;27;20050;-83
2022/09/02 10:30:22;;;;;;;12.50;1.20;;;22.00;99.90;;;;;;5131058;27;20039;-84
2022/09/02 10:32:57;;;;;;;4.38;0.80;;;22.00;99.90;;;;;;5130736;27;20050;-84
2022/09/02 10:35:29;;;;;;;4.43;0.80;;;22.00;99.90;;;;;;5147684;27;20035;-83
2022/09/02 10:38:11;;;;;;;3.25;0.80;;;22.10;99.90;;;;;;5130152;27;20072;-84
2022/09/02 10:40:45;;;;;;;4.50;0.68;;;22.20;99.90;;;;;;5129844;27;20046;-85
2022/09/02 10:43:27;;;;;;;4.93;0.60;;;22.20;99.90;;;;;;5125275;27;20054;-84
2022/09/02 10:45:58;;;;;;;5.82;0.90;;;22.30;99.90;;;;;;5107044;27;20089;-85
2022/09/02 10:48:38;;;;;;;2.20;0.68;;;22.40;99.90;;;;;;5136825;27;20607;-85
2022/09/02 10:51:49;;;;;;;6.22;0.80;;;22.50;99.90;;;;;;5125582;27;20092;-85
2022/09/02 10:54:38;;;;;;;9.18;1.05;;;22.50;99.90;;;;;;5107922;27;20142;-84
2022/09/02 10:57:10;;;;;;;24.10;2.55;;;22.60;99.90;;;;;;5107655;27;20052;-84
2022/09/02 10:59:51;;;;;;;8.17;0.77;;;22.60;99.90;;;;;;5124590;27;20047;-84
2022/09/02 11:02:41;;;;;;;4.40;0.65;;;22.70;99.90;;;;;;5106993;27;20129;-83
2022/09/02 11:05:16;;;;;;;2.80;0.80;;;22.70;99.90;;;;;;5123655;27;20872;-83
2022/09/02 11:07:51;;;;;;;13.85;1.50;;;22.90;99.90;;;;;;5142022;27;20086;-84
2022/09/02 11:10:23;;;;;;;14.07;1.20;;;22.90;99.90;;;;;;5144844;27;20050;-84
2022/09/02 11:12:59;;;;;;;3.83;1.00;;;22.90;99.90;;;;;;5145285;27;20034;-85
2022/09/02 11:15:33;;;;;;;8.75;1.35;;;23.00;99.90;;;;;;5124558;27;20516;-83
2022/09/02 11:18:11;;;;;;;4.93;0.80;;;23.00;99.90;;;;;;5127412;27;20512;-83
2022/09/02 11:20:49;;;;;;;6.50;0.70;;;23.00;99.60;;;;;;5144722;27;20060;-87
2022/09/02 11:23:34;;;;;;;8.88;1.00;;;23.00;99.30;;;;;;5122503;27;20038;-83
2022/09/02 11:26:04;;;;;;;4.38;0.77;;;23.10;99.00;;;;;;5123681;27;20394;-83
2022/09/02 11:28:38;;;;;;;14.45;0.95;;;23.00;99.10;;;;;;5106816;27;20051;-84
2022/09/02 11:31:14;;;;;;;4.65;0.88;;;23.10;98.90;;;;;;5110323;27;20133;-83
2022/09/02 11:33:59;;;;;;;4.07;0.80;;;23.10;98.10;;;;;;5092901;27;20501;-83
2022/09/02 11:36:27;;;;;;;67.22;5.80;;;23.20;98.10;;;;;;5092479;27;20070;-83
2022/09/02 11:38:59;;;;;;;18.40;1.67;;;23.20;98.00;;;;;;5093955;27;20186;-83
2022/09/02 11:41:59;;;;;;;3.85;0.70;;;23.20;97.10;;;;;;5109293;27;20393;-82
2022/09/02 11:44:39;;;;;;;4.13;0.88;;;23.30;96.40;;;;;;5092151;27;20051;-82
2022/09/02 11:47:26;;;;;;;8.95;0.70;;;23.30;95.70;;;;;;5109063;27;20047;-84
2022/09/02 11:50:19;;;;;;;7.20;0.90;;;23.30;96.40;;;;;;5109454;27;20467;-83
2022/09/02 11:53:23;;;;;;;3.58;0.60;;;23.30;96.70;;;;;;5102094;27;20501;-84
2022/09/02 11:56:10;;;;;;;7.25;1.02;;;23.40;96.80;;;;;;5099882;27;20058;-86
2022/09/02 11:58:41;;;;;;;7.38;1.10;;;23.40;96.30;;;;;;5128554;27;20039;-84
2022/09/02 12:01:26;;;;;;;7.10;0.70;;;23.50;95.70;;;;;;5116025;27;20043;-84
2022/09/02 12:04:05;;;;;;;3.95;0.63;;;23.50;95.20;;;;;;5114628;27;20103;-87
2022/09/02 12:07:00;;;;;;;8.45;0.85;;;23.50;95.10;;;;;;5116761;27;20051;-94
2022/09/02 12:09:48;;;;;;;5.43;1.20;;;23.50;94.80;;;;;;5133368;27;20047;-87
2022/09/02 12:12:35;;;;;;;5.60;0.70;;;23.60;95.60;;;;;;5116714;27;20100;-87
2022/09/02 12:15:13;;;;;;;4.78;0.80;;;23.70;95.40;;;;;;5113828;27;20115;-88
2022/09/02 12:17:46;;;;;;;6.28;0.70;;;23.70;94.40;;;;;;5117141;27;20118;-88
2022/09/02 12:20:35;;;;;;;2.85;0.52;;;23.70;94.20;;;;;;5113487;27;20047;-86
2022/09/02 12:23:01;;;;;;;7.93;1.00;;;23.70;93.80;;;;;;5113141;27;20052;-87
2022/09/02 12:25:36;;;;;;;30.88;2.60;;;23.70;93.60;;;;;;5111985;27;20070;-86
2022/09/02 12:28:22;;;;;;;32.20;3.00;;;23.80;92.90;;;;;;5100512;27;20055;-85
2022/09/02 12:30:54;;;;;;;5.25;0.68;;;23.80;92.80;;;;;;5112066;27;20047;-86
2022/09/02 12:33:31;;;;;;;7.03;0.60;;;23.80;93.20;;;;;;5112911;27;20666;-86
2022/09/02 12:35:58;;;;;;;6.85;0.75;;;23.80;92.50;;;;;;5129952;27;20122;-86
2022/09/02 12:38:27;;;;;;;4.82;0.63;;;23.80;92.80;;;;;;5128789;27;20043;-85
2022/09/02 12:41:00;;;;;;;4.35;0.60;;;23.80;93.00;;;;;;5112011;28;20114;-87
2022/09/02 12:43:34;;;;;;;6.43;0.70;;;23.90;92.60;;;;;;5103709;28;20043;-86
2022/09/02 12:46:16;;;;;;;4.90;0.65;;;23.90;92.30;;;;;;5102772;27;20379;-87
2022/09/02 12:48:55;;;;;;;7.53;0.70;;;23.90;92.20;;;;;;5105868;28;20048;-88
2022/09/02 12:51:50;;;;;;;4.88;0.50;;;23.90;91.20;;;;;;5084696;28;20853;-85
2022/09/02 12:54:17;;;;;;;3.03;0.47;;;24.00;92.00;;;;;;5087829;28;20044;-86
2022/09/02 12:56:49;;;;;;;10.73;0.70;;;24.00;90.90;;;;;;5071448;28;20050;-86
2022/09/02 12:59:29;;;;;;;3.13;0.60;;;24.00;90.60;;;;;;5087121;28;20052;-86
2022/09/02 13:02:22;;;;;;;6.43;0.70;;;23.90;90.00;;;;;;5071088;28;20169;-87
2022/09/02 13:05:05;;;;;;;6.50;0.50;;;23.90;88.10;;;;;;5071739;28;20048;-86